Date,TemperatureHighF,TemperatureAvgF,TemperatureLowF,DewpointHighF,DewpointAvgF,DewpointLowF,HumidityHigh,HumidityAvg,HumidityLow,PressureMaxIn,PressureMinIn,WindSpeedMaxMPH,WindSpeedAvgMPH,GustSpeedMaxMPH,PrecipitationSumIn
2013-3-1,75,55,40,54,48,39,97,80,45,30.45,30.25,3,0,8,0.00
2013-3-2,70,57,45,55,50,44,96,78,54,30.27,30.08,4,0,8,0.00
2013-3-3,66,54,39,51,46,38,94,77,48,30.11,30.02,6,1,16,0.00
2013-3-4,61,46,37,50,42,34,96,86,64,30.18,30.07,5,1,12,0.00
2013-3-5,56,45,33,46,40,32,96,83,64,30.10,29.84,8,2,19,0.17
2013-3-6,55,48,35,46,41,33,94,79,55,30.09,29.84,6,2,18,0.23
2013-3-7,56,45,33,43,37,32,96,76,53,30.03,29.89,3,0,7,0.00
2013-3-8,62,49,39,48,39,34,84,69,41,30.06,29.87,9,3,17,0.00
2013-3-9,71,52,34,44,38,29,95,64,22,30.32,30.06,8,2,16,0.00
2013-3-10,74,52,36,50,37,26,92,62,20,30.38,30.26,3,1,8,0.00
2013-3-11,75,51,34,50,39,31,92,67,31,30.29,30.11,4,0,8,0.00
2013-3-12,79,54,38,57,46,36,96,76,41,30.19,30.08,4,1,9,0.00
2013-3-13,81,57,40,57,48,38,97,76,41,30.19,30.07,4,0,8,0.00
2013-3-14,74,57,44,58,48,39,97,76,29,30.18,30.10,6,1,13,0.00
2013-3-15,67,47,40,51,42,38,94,84,57,30.16,30.12,3,0,7,0.00
2013-3-18,70,62,50,49,45,42,77,56,38,30.14,30.03,5,1,11,0.00
2013-3-19,64,51,41,48,43,38,94,76,43,30.16,30.08,5,1,12,0.06
2013-3-20,59,51,45,55,49,43,96,92,82,30.16,30.09,4,0,12,0.49
2013-3-21,66,51,36,47,42,34,96,75,46,30.15,30.02,6,2,14,0.01
2013-3-22,70,54,36,41,30,13,91,47,14,30.14,30.05,9,2,22,0.00
2013-3-23,46,40,38,36,34,32,86,80,57,30.11,30.11,3,0,10,0.00
2013-3-24,73,53,36,50,42,34,94,70,33,30.12,29.97,4,1,9,0.00
2013-3-25,63,48,35,48,41,34,97,80,43,30.05,29.95,6,1,14,0.00
2013-3-26,70,52,39,51,44,37,96,76,43,30.03,29.94,5,1,12,0.00
2013-3-27,62,52,42,53,46,40,94,83,67,30.04,29.97,4,1,10,0.00
2013-3-28,68,55,48,54,49,46,95,82,58,30.11,30.03,2,0,7,0.00
2013-3-29,78,58,42,57,50,41,97,77,40,30.12,30.02,4,1,11,0.00
2013-3-30,68,58,50,56,52,48,93,79,58,30.08,30.00,5,1,12,0.11
2013-3-31,65,56,49,56,52,48,97,87,66,30.10,30.01,4,1,12,0.17